Flight Track Log - Related Links

Times and Time Zones

All times are in EDT time to prevent confusion due to time zone crossing. See the AIE860 flight status page for this flight to view local times or setup timezone preferences in your user account.

Time Position Orientation Groundspeed Altitude Reporting Facility
EDT Latitude Longitude Course Direction KTS MPH feet Rate Location/Type
Thu 08:45:02 AM 55.5500 -77.6833 10° North 190 219 10,700  Level Montreal Center
Thu 08:46:02 AM 55.6000 -77.6833 360° North 190 219 11,900 1,200 Climbing Montreal Center
Thu 08:47:02 AM 55.6500 -77.6667 11° North 200 230 13,100 1,200 Climbing Montreal Center
Thu 08:48:00 AM 55.7521 -77.6363 North  Level FlightAware Approximate
Thu 08:48:02 AM 55.7000 -77.6667 360° North 210 242 14,300  Level Montreal Center
Thu 08:49:00 AM 55.8216 -77.6224 North  Level FlightAware Approximate
Thu 08:49:02 AM 55.7667 -77.6333 16° North 210 242 15,400  Level Montreal Center
Thu 08:50:00 AM 55.8909 -77.6044 10° North  Level FlightAware Approximate
Thu 08:50:02 AM 55.8167 -77.6167 11° North 220 253 16,500  Level Montreal Center
Thu 08:51:02 AM 55.8833 -77.6167 360° North 230 265 17,600 950 Climbing Montreal Center
Thu 08:52:02 AM 55.9500 -77.5833 16° North 230 265 18,400 900 Climbing Montreal Center
Thu 08:53:02 AM 56.0167 -77.5833 360° North 240 276 19,400 1,100 Climbing Montreal Center
Thu 08:54:02 AM 56.0833 -77.5667 North 240 276 20,600 1,050 Climbing Montreal Center
Thu 08:55:02 AM 56.1500 -77.5333 16° North 240 276 21,500 1,000 Climbing Montreal Center
Thu 08:56:02 AM 56.2333 -77.5000 13° North 240 276 22,600 750 Climbing Montreal Center
Thu 08:57:02 AM 56.3000 -77.5000 360° North 250 288 23,000 200 Climbing Montreal Center
Thu 08:58:02 AM 56.3833 -77.4833 North 270 311 23,000  Level Montreal Center
Thu 08:59:02 AM 56.4667 -77.4500 12° North 290 334 23,000  Level Montreal Center
Thu 09:00:02 AM 56.5500 -77.4500 360° North 300 345 23,000  Level Montreal Center
Thu 09:01:02 AM 56.6167 -77.4333 North 300 345 23,000  Level Montreal Center
Thu 09:03:00 AM 56.7491 -77.3646 North  Level FlightAware Approximate
Thu 09:10:00 AM 57.2338 -77.2330 North  Level FlightAware Approximate
Thu 09:11:00 AM 57.3030 -77.2139 North  Level FlightAware Approximate
Thu 09:12:00 AM 57.3722 -77.1947 North  Level FlightAware Approximate
Thu 09:13:00 AM 57.4414 -77.1755 North  Level FlightAware Approximate
Thu 09:14:00 AM 57.5107 -77.1562 North  Level FlightAware Approximate
Thu 09:15:00 AM 57.5799 -77.1368 North  Level FlightAware Approximate
Thu 09:16:00 AM 57.6491 -77.1174 North  Level FlightAware Approximate
Thu 09:17:00 AM 57.7183 -77.0978 North  Level FlightAware Approximate
Thu 09:18:00 AM 57.7875 -77.0782 North  Level FlightAware Approximate
Thu 09:19:00 AM 57.8567 -77.0586 North  Level FlightAware Approximate
Thu 09:20:00 AM 57.9259 -77.0388 North  Level FlightAware Approximate
Thu 09:21:00 AM 57.9951 -77.0190 North  Level FlightAware Approximate
Thu 09:22:00 AM 58.0643 -76.9991 North  Level FlightAware Approximate
Thu 09:23:00 AM 58.1335 -76.9791 North  Level FlightAware Approximate
Thu 09:24:00 AM 58.2027 -76.9590 North  Level FlightAware Approximate
Thu 09:25:00 AM 58.2719 -76.9389 North  Level FlightAware Approximate
Thu 09:26:00 AM 58.3411 -76.9187 North  Level FlightAware Approximate
Thu 09:27:00 AM 58.4102 -76.8984 North  Level FlightAware Approximate
Thu 09:28:00 AM 58.4794 -76.8780 North  Level FlightAware Approximate
Thu 09:29:00 AM 58.5486 -76.8575 North  Level FlightAware Approximate
Thu 09:30:00 AM 58.6178 -76.8370 North  Level FlightAware Approximate
Thu 09:31:00 AM 58.6869 -76.8164 North  Level FlightAware Approximate
Thu 09:32:00 AM 58.7561 -76.7957 North  Level FlightAware Approximate
Thu 09:33:00 AM 58.8252 -76.7749 North  Level FlightAware Approximate
Thu 09:34:00 AM 58.8944 -76.7540 North  Level FlightAware Approximate
Thu 09:35:00 AM 58.9636 -76.7331 North  Level FlightAware Approximate
Thu 09:36:00 AM 59.0327 -76.7120 North  Level FlightAware Approximate
Thu 09:37:00 AM 59.1019 -76.6909 North  Level FlightAware Approximate
Thu 09:38:00 AM 59.1710 -76.6697 North  Level FlightAware Approximate
Thu 09:39:00 AM 59.2401 -76.6484 North  Level FlightAware Approximate
Thu 09:40:00 AM 59.3093 -76.6270 North  Level FlightAware Approximate
Thu 09:41:00 AM 59.3784 -76.6056 North  Level FlightAware Approximate
Thu 09:42:00 AM 59.4475 -76.5840 North  Level FlightAware Approximate
Thu 09:43:00 AM 59.5167 -76.5624 North  Level FlightAware Approximate
Thu 09:44:00 AM 59.5858 -76.5406 North  Level FlightAware Approximate
Thu 09:45:00 AM 59.6549 -76.5188 North  Level FlightAware Approximate
Thu 09:46:00 AM 59.7240 -76.4969 North  Level FlightAware Approximate
Thu 09:47:00 AM 59.7931 -76.4749 North  Level FlightAware Approximate
Thu 09:48:00 AM 59.8622 -76.4528 North  Level FlightAware Approximate
Thu 09:49:00 AM 59.9313 -76.4306 North  Level FlightAware Approximate
Thu 09:50:00 AM 60.0004 -76.4083 North  Level FlightAware Approximate
Thu 09:51:00 AM 60.0695 -76.3860 North  Level FlightAware Approximate
Thu 09:52:00 AM 60.1386 -76.3635 North  Level FlightAware Approximate
Thu 09:53:00 AM 60.2077 -76.3410 North  Level FlightAware Approximate
Thu 09:54:00 AM 60.2768 -76.3183 North  Level FlightAware Approximate
Thu 09:55:00 AM 60.3459 -76.2956 North  Level FlightAware Approximate
Thu 09:56:00 AM 60.4150 -76.2727 North  Level FlightAware Approximate
Thu 09:57:00 AM 60.4840 -76.2498 North  Level FlightAware Approximate
Thu 09:58:00 AM 60.5531 -76.2269 North  Level FlightAware Approximate
Thu 09:59:00 AM 60.6222 -76.2039 North  Level FlightAware Approximate
Thu 10:00:00 AM 60.6913 -76.1809 North  Level FlightAware Approximate
Thu 10:01:00 AM 60.7603 -76.1577 North  Level FlightAware Approximate
Thu 10:02:00 AM 60.8294 -76.1341 10° North  Level FlightAware Approximate
Thu 10:03:00 AM 60.8984 -76.1102 10° North  Level FlightAware Approximate
Thu 10:04:00 AM 60.9674 -76.0862 10° North  Level FlightAware Approximate
Thu 10:05:00 AM 61.0364 -76.0621 10° North  Level FlightAware Approximate
Thu 10:06:00 AM 61.1054 -76.0379 10° North  Level FlightAware Approximate
Thu 10:07:00 AM 61.1744 -76.0136 10° North  Level FlightAware Approximate
Thu 10:08:00 AM 61.2435 -75.9892 10° North  Level FlightAware Approximate
Thu 10:09:00 AM 61.3124 -75.9646 10° North  Level FlightAware Approximate
Thu 10:10:00 AM 61.3814 -75.9400 10° North  Level FlightAware Approximate
Thu 10:11:00 AM 61.4506 -75.9182 North  Level FlightAware Approximate
Thu 10:12:00 AM 61.5199 -75.8974 North  Level FlightAware Approximate
Thu 10:13:00 AM 61.5891 -75.8748 10° North  Level FlightAware Approximate
Thu 10:14:00 AM 61.6579 -75.8484 10° North  Level FlightAware Approximate
Thu 10:15:00 AM 61.7268 -75.8219 10° North  Level FlightAware Approximate
Thu 10:16:00 AM 61.7956 -75.7951 11° North  Level FlightAware Approximate
Thu 10:17:00 AM 61.8644 -75.7677 11° North  Level FlightAware Approximate
Thu 10:18:00 AM 61.9332 -75.7401 11° North  Level FlightAware Approximate
Thu 10:19:00 AM 62.0027 -75.7228 North  Level FlightAware Approximate
Thu 10:20:00 AM 62.0718 -75.7013 11° North  Level FlightAware Approximate
Thu 10:21:00 AM 62.1408 -75.6753 North  Level FlightAware Approximate
Thu 10:22:00 AM 62.1667 -75.6667 North  Level FlightAware Approximate
Thu 10:23:00 AM 62.1792 -75.6669 North  Level Estimated
Thu 10:24:00 AM 62.1792 -75.6669 North  Level Estimated
Thu 10:25:00 AM 62.1792 -75.6669 North  Level Estimated
Thu 10:26:00 AM 62.1792 -75.6669 North  Level Estimated
Thu 10:27:00 AM 62.1792 -75.6669 North  Level Estimated
Thu 10:28:00 AM 62.1792 -75.6669 North  Level Estimated
Thu 10:29:00 AM 62.1792 -75.6669 North  Level Estimated
Thu 10:30:00 AM 62.1792 -75.6669 North  Level Estimated
Thu 10:31:00 AM 62.1792 -75.6669 North  Level Estimated
Thu 10:32:00 AM 62.1792 -75.6669 North  Level Estimated
Thu 10:33:00 AM 62.1792 -75.6669 North  Level Estimated
Thu 10:34:00 AM 62.1792 -75.6669 North  Level Estimated
Thu 10:35:00 AM 62.1792 -75.6669 North  Level Estimated
Thu 10:36:00 AM 62.1792 -75.6669 North  Level Estimated

Login

Don't have an account? Register now (free) for customized features, flight alerts, and more!